sensor_id;sensor_type;location;lat;lon;timestamp;pressure;altitude;pressure_sealevel;temperature;humidity
66945;BME280;53853;51.982;5.928;2024-02-21T00:02:31;102088.47;;;10.52;83.45
66945;BME280;53853;51.982;5.928;2024-02-21T00:05:04;102081.31;;;10.52;83.65
66945;BME280;53853;51.982;5.928;2024-02-21T00:07:34;102073.53;;;10.49;83.24
66945;BME280;53853;51.982;5.928;2024-02-21T00:10:04;102069.91;;;10.50;83.60
66945;BME280;53853;51.982;5.928;2024-02-21T00:12:34;102067.97;;;10.52;83.89
66945;BME280;53853;51.982;5.928;2024-02-21T00:15:05;102063.50;;;10.53;83.99
66945;BME280;53853;51.982;5.928;2024-02-21T00:17:35;102064.34;;;10.54;83.96
66945;BME280;53853;51.982;5.928;2024-02-21T00:20:08;102065.19;;;10.54;83.95
66945;BME280;53853;51.982;5.928;2024-02-21T00:22:38;102074.03;;;10.55;84.39
66945;BME280;53853;51.982;5.928;2024-02-21T00:25:08;102064.13;;;10.57;84.40
66945;BME280;53853;51.982;5.928;2024-02-21T00:27:38;102056.00;;;10.58;84.69
66945;BME280;53853;51.982;5.928;2024-02-21T00:30:10;102059.75;;;10.56;84.28
66945;BME280;53853;51.982;5.928;2024-02-21T00:32:40;102057.78;;;10.58;84.80
66945;BME280;53853;51.982;5.928;2024-02-21T00:35:13;102049.81;;;10.58;84.30
66945;BME280;53853;51.982;5.928;2024-02-21T00:37:43;102047.25;;;10.56;84.34
66945;BME280;53853;51.982;5.928;2024-02-21T00:40:13;102039.13;;;10.58;84.82
66945;BME280;53853;51.982;5.928;2024-02-21T00:42:46;102042.69;;;10.58;84.83
66945;BME280;53853;51.982;5.928;2024-02-21T00:45:16;102038.06;;;10.60;84.79
66945;BME280;53853;51.982;5.928;2024-02-21T00:47:46;102041.69;;;10.59;84.59
66945;BME280;53853;51.982;5.928;2024-02-21T00:50:19;102032.84;;;10.59;84.63
66945;BME280;53853;51.982;5.928;2024-02-21T00:52:49;102029.94;;;10.62;84.63
66945;BME280;53853;51.982;5.928;2024-02-21T00:55:18;102017.56;;;10.61;84.62
66945;BME280;53853;51.982;5.928;2024-02-21T00:57:48;102018.44;;;10.61;84.69
66945;BME280;53853;51.982;5.928;2024-02-21T01:00:19;102014.78;;;10.62;85.05
66945;BME280;53853;51.982;5.928;2024-02-21T01:02:49;102013.00;;;10.63;84.82
66945;BME280;53853;51.982;5.928;2024-02-21T01:05:21;102001.34;;;10.64;84.71
66945;BME280;53853;51.982;5.928;2024-02-21T01:07:51;102007.53;;;10.64;84.10
66945;BME280;53853;51.982;5.928;2024-02-21T01:10:21;101997.84;;;10.63;83.84
66945;BME280;53853;51.982;5.928;2024-02-21T01:12:51;102002.22;;;10.64;84.06
66945;BME280;53853;51.982;5.928;2024-02-21T01:15:21;102000.50;;;10.63;84.27
66945;BME280;53853;51.982;5.928;2024-02-21T01:17:50;101996.88;;;10.64;84.28
66945;BME280;53853;51.982;5.928;2024-02-21T01:20:24;101984.50;;;10.63;84.37
66945;BME280;53853;51.982;5.928;2024-02-21T01:22:53;102004.13;;;10.62;84.35
66945;BME280;53853;51.982;5.928;2024-02-21T01:25:24;101994.56;;;10.60;83.86
66945;BME280;53853;51.982;5.928;2024-02-21T01:27:54;101987.41;;;10.60;84.04
66945;BME280;53853;51.982;5.928;2024-02-21T01:30:23;101986.44;;;10.61;84.36
66945;BME280;53853;51.982;5.928;2024-02-21T01:32:53;101999.78;;;10.61;84.53
66945;BME280;53853;51.982;5.928;2024-02-21T01:35:25;102013.94;;;10.62;84.11
66945;BME280;53853;51.982;5.928;2024-02-21T01:37:55;102014.19;;;10.59;83.46
66945;BME280;53853;51.982;5.928;2024-02-21T01:40:25;102011.75;;;10.56;83.34
66945;BME280;53853;51.982;5.928;2024-02-21T01:42:56;102009.22;;;10.54;83.26
66945;BME280;53853;51.982;5.928;2024-02-21T01:45:26;102012.00;;;10.52;83.56
66945;BME280;53853;51.982;5.928;2024-02-21T01:47:55;102008.50;;;10.52;83.92
66945;BME280;53853;51.982;5.928;2024-02-21T01:50:28;101997.72;;;10.54;84.34
66945;BME280;53853;51.982;5.928;2024-02-21T01:52:58;101987.78;;;10.56;84.30
66945;BME280;53853;51.982;5.928;2024-02-21T01:55:29;101989.72;;;10.54;84.02
66945;BME280;53853;51.982;5.928;2024-02-21T01:57:59;101979.06;;;10.54;84.45
66945;BME280;53853;51.982;5.928;2024-02-21T02:00:29;101978.34;;;10.51;84.60
66945;BME280;53853;51.982;5.928;2024-02-21T02:02:59;101977.34;;;10.52;84.77
66945;BME280;53853;51.982;5.928;2024-02-21T02:05:31;101969.13;;;10.56;85.10
66945;BME280;53853;51.982;5.928;2024-02-21T02:08:02;101969.00;;;10.57;85.46
66945;BME280;53853;51.982;5.928;2024-02-21T02:10:31;101964.03;;;10.52;84.24
66945;BME280;53853;51.982;5.928;2024-02-21T02:13:01;101963.31;;;10.50;84.19
66945;BME280;53853;51.982;5.928;2024-02-21T02:15:38;101954.47;;;10.50;83.42
66945;BME280;53853;51.982;5.928;2024-02-21T02:18:09;101955.44;;;10.49;82.96
66945;BME280;53853;51.982;5.928;2024-02-21T02:20:42;101953.84;;;10.46;82.49
66945;BME280;53853;51.982;5.928;2024-02-21T02:23:20;101946.97;;;10.44;83.12
66945;BME280;53853;51.982;5.928;2024-02-21T02:25:51;101939.81;;;10.44;83.42
66945;BME280;53853;51.982;5.928;2024-02-21T02:28:21;101940.66;;;10.45;83.19
66945;BME280;53853;51.982;5.928;2024-02-21T02:30:51;101935.44;;;10.43;83.25
66945;BME280;53853;51.982;5.928;2024-02-21T02:33:21;101934.59;;;10.43;83.02
66945;BME280;53853;51.982;5.928;2024-02-21T02:35:51;101933.25;;;10.37;82.83
66945;BME280;53853;51.982;5.928;2024-02-21T02:38:24;101920.91;;;10.36;82.94
66945;BME280;53853;51.982;5.928;2024-02-21T02:40:53;101919.94;;;10.37;83.06
66945;BME280;53853;51.982;5.928;2024-02-21T02:43:23;101912.81;;;10.38;83.48
66945;BME280;53853;51.982;5.928;2024-02-21T02:45:53;101913.53;;;10.40;83.23
66945;BME280;53853;51.982;5.928;2024-02-21T02:48:23;101906.50;;;10.39;82.63
66945;BME280;53853;51.982;5.928;2024-02-21T02:50:53;101901.16;;;10.39;83.08
66945;BME280;53853;51.982;5.928;2024-02-21T02:53:25;101910.03;;;10.39;83.61
66945;BME280;53853;51.982;5.928;2024-02-21T02:55:55;101917.03;;;10.40;83.07
66945;BME280;53853;51.982;5.928;2024-02-21T02:58:25;101910.16;;;10.38;82.93
66945;BME280;53853;51.982;5.928;2024-02-21T03:00:55;101907.59;;;10.36;82.25
66945;BME280;53853;51.982;5.928;2024-02-21T03:03:24;101912.41;;;10.31;82.21
66945;BME280;53853;51.982;5.928;2024-02-21T03:05:54;101903.56;;;10.30;82.67
66945;BME280;53853;51.982;5.928;2024-02-21T03:08:27;101903.56;;;10.30;82.68
66945;BME280;53853;51.982;5.928;2024-02-21T03:10:57;101902.72;;;10.30;82.82
66945;BME280;53853;51.982;5.928;2024-02-21T03:13:26;101908.06;;;10.30;82.76
66945;BME280;53853;51.982;5.928;2024-02-21T03:15:56;101895.56;;;10.30;83.08
66945;BME280;53853;51.982;5.928;2024-02-21T03:18:26;101893.25;;;10.26;82.77
66945;BME280;53853;51.982;5.928;2024-02-21T03:20:56;101878.03;;;10.28;83.26
66945;BME280;53853;51.982;5.928;2024-02-21T03:23:29;101891.22;;;10.29;83.62
66945;BME280;53853;51.982;5.928;2024-02-21T03:25:58;101892.06;;;10.30;83.99
66945;BME280;53853;51.982;5.928;2024-02-21T03:28:28;101889.41;;;10.30;83.65
66945;BME280;53853;51.982;5.928;2024-02-21T03:30:58;101897.41;;;10.30;83.75
66945;BME280;53853;51.982;5.928;2024-02-21T03:33:28;101894.72;;;10.30;84.04
66945;BME280;53853;51.982;5.928;2024-02-21T03:35:58;101896.56;;;10.29;84.17
66945;BME280;53853;51.982;5.928;2024-02-21T03:38:30;101890.25;;;10.30;84.24
66945;BME280;53853;51.982;5.928;2024-02-21T03:41:00;101883.75;;;10.35;84.05
66945;BME280;53853;51.982;5.928;2024-02-21T03:43:30;101882.91;;;10.34;83.63
66945;BME280;53853;51.982;5.928;2024-02-21T03:45:59;101881.06;;;10.35;83.95
66945;BME280;53853;51.982;5.928;2024-02-21T03:48:29;101867.97;;;10.31;83.83
66945;BME280;53853;51.982;5.928;2024-02-21T03:50:59;101858.16;;;10.32;83.82
66945;BME280;53853;51.982;5.928;2024-02-21T03:53:32;101853.59;;;10.34;83.91
66945;BME280;53853;51.982;5.928;2024-02-21T03:56:02;101849.22;;;10.33;83.95
66945;BME280;53853;51.982;5.928;2024-02-21T03:58:34;101853.81;;;10.31;84.06
66945;BME280;53853;51.982;5.928;2024-02-21T04:01:04;101860.72;;;10.33;84.37
66945;BME280;53853;51.982;5.928;2024-02-21T04:03:34;101850.78;;;10.36;84.01
66945;BME280;53853;51.982;5.928;2024-02-21T04:06:04;101854.31;;;10.36;83.79
66945;BME280;53853;51.982;5.928;2024-02-21T04:08:37;101866.41;;;10.40;84.31
66945;BME280;53853;51.982;5.928;2024-02-21T04:11:06;101861.06;;;10.40;84.53
66945;BME280;53853;51.982;5.928;2024-02-21T04:13:36;101847.75;;;10.40;84.39
66945;BME280;53853;51.982;5.928;2024-02-21T04:16:06;101852.34;;;10.38;84.00
66945;BME280;53853;51.982;5.928;2024-02-21T04:18:36;101861.19;;;10.39;84.00
66945;BME280;53853;51.982;5.928;2024-02-21T04:21:06;101852.22;;;10.40;84.27
66945;BME280;53853;51.982;5.928;2024-02-21T04:23:38;101852.13;;;10.41;84.11
66945;BME280;53853;51.982;5.928;2024-02-21T04:26:08;101847.75;;;10.40;84.32
66945;BME280;53853;51.982;5.928;2024-02-21T04:28:38;101847.50;;;10.43;84.58
66945;BME280;53853;51.982;5.928;2024-02-21T04:31:08;101844.84;;;10.43;84.72
66945;BME280;53853;51.982;5.928;2024-02-21T04:33:38;101834.16;;;10.43;84.49
66945;BME280;53853;51.982;5.928;2024-02-21T04:36:08;101836.72;;;10.45;84.58
66945;BME280;53853;51.982;5.928;2024-02-21T04:38:41;101840.13;;;10.47;84.76
66945;BME280;53853;51.982;5.928;2024-02-21T04:41:10;101842.78;;;10.47;84.69
66945;BME280;53853;51.982;5.928;2024-02-21T04:43:40;101834.78;;;10.47;84.82
66945;BME280;53853;51.982;5.928;2024-02-21T04:46:10;101828.47;;;10.48;85.12
66945;BME280;53853;51.982;5.928;2024-02-21T04:48:40;101837.34;;;10.48;85.27
66945;BME280;53853;51.982;5.928;2024-02-21T04:51:12;101839.00;;;10.49;85.14
66945;BME280;53853;51.982;5.928;2024-02-21T04:53:45;101835.38;;;10.50;85.04
66945;BME280;53853;51.982;5.928;2024-02-21T04:56:14;101825.69;;;10.49;85.05
66945;BME280;53853;51.982;5.928;2024-02-21T04:58:44;101823.13;;;10.48;84.38
66945;BME280;53853;51.982;5.928;2024-02-21T05:01:14;101816.97;;;10.47;84.47
66945;BME280;53853;51.982;5.928;2024-02-21T05:03:44;101809.94;;;10.46;84.29
66945;BME280;53853;51.982;5.928;2024-02-21T05:06:14;101802.19;;;10.43;84.38
66945;BME280;53853;51.982;5.928;2024-02-21T05:08:46;101798.69;;;10.43;83.05
66945;BME280;53853;51.982;5.928;2024-02-21T05:11:16;101803.31;;;10.41;82.46
66945;BME280;53853;51.982;5.928;2024-02-21T05:13:46;101793.50;;;10.41;82.74
66945;BME280;53853;51.982;5.928;2024-02-21T05:16:16;101795.19;;;10.42;82.96
66945;BME280;53853;51.982;5.928;2024-02-21T05:18:46;101787.19;;;10.42;82.24
66945;BME280;53853;51.982;5.928;2024-02-21T05:21:16;101796.28;;;10.40;82.13
66945;BME280;53853;51.982;5.928;2024-02-21T05:23:48;101797.97;;;10.41;82.57
66945;BME280;53853;51.982;5.928;2024-02-21T05:26:21;101792.91;;;10.38;82.53
66945;BME280;53853;51.982;5.928;2024-02-21T05:28:51;101800.78;;;10.39;82.91
66945;BME280;53853;51.982;5.928;2024-02-21T05:31:21;101783.06;;;10.38;82.97
66945;BME280;53853;51.982;5.928;2024-02-21T05:33:51;101783.06;;;10.38;83.40
66945;BME280;53853;51.982;5.928;2024-02-21T05:36:20;101780.16;;;10.41;83.38
66945;BME280;53853;51.982;5.928;2024-02-21T05:38:53;101779.19;;;10.42;82.53
66945;BME280;53853;51.982;5.928;2024-02-21T05:41:24;101774.72;;;10.43;82.90
66945;BME280;53853;51.982;5.928;2024-02-21T05:43:54;101771.22;;;10.42;82.93
66945;BME280;53853;51.982;5.928;2024-02-21T05:46:24;101774.59;;;10.44;82.36
66945;BME280;53853;51.982;5.928;2024-02-21T05:48:54;101759.69;;;10.42;82.39
66945;BME280;53853;51.982;5.928;2024-02-21T05:51:24;101750.97;;;10.40;82.49
66945;BME280;53853;51.982;5.928;2024-02-21T05:53:56;101749.88;;;10.42;83.13
66945;BME280;53853;51.982;5.928;2024-02-21T05:56:26;101742.59;;;10.44;83.61
66945;BME280;53853;51.982;5.928;2024-02-21T05:58:56;101744.31;;;10.45;84.06
66945;BME280;53853;51.982;5.928;2024-02-21T06:01:26;101743.56;;;10.43;84.05
66945;BME280;53853;51.982;5.928;2024-02-21T06:03:55;101734.50;;;10.46;84.25
66945;BME280;53853;51.982;5.928;2024-02-21T06:06:25;101729.88;;;10.48;84.29
66945;BME280;53853;51.982;5.928;2024-02-21T06:08:58;101730.84;;;10.47;83.79
66945;BME280;53853;51.982;5.928;2024-02-21T06:11:29;101728.19;;;10.47;83.55
66945;BME280;53853;51.982;5.928;2024-02-21T06:13:59;101732.66;;;10.46;83.54
66945;BME280;53853;51.982;5.928;2024-02-21T06:16:29;101725.66;;;10.45;83.05
66945;BME280;53853;51.982;5.928;2024-02-21T06:18:59;101718.50;;;10.46;82.81
66945;BME280;53853;51.982;5.928;2024-02-21T06:21:30;101725.66;;;10.45;83.00
66945;BME280;53853;51.982;5.928;2024-02-21T06:24:03;101718.63;;;10.44;82.71
66945;BME280;53853;51.982;5.928;2024-02-21T06:26:32;101717.66;;;10.45;82.64
66945;BME280;53853;51.982;5.928;2024-02-21T06:29:02;101715.13;;;10.44;82.00
66945;BME280;53853;51.982;5.928;2024-02-21T06:31:32;101708.94;;;10.43;81.80
66945;BME280;53853;51.982;5.928;2024-02-21T06:34:02;101711.59;;;10.43;82.21
66945;BME280;53853;51.982;5.928;2024-02-21T06:36:32;101716.09;;;10.43;82.36
66945;BME280;53853;51.982;5.928;2024-02-21T06:39:04;101714.25;;;10.43;81.78
66945;BME280;53853;51.982;5.928;2024-02-21T06:41:35;101711.00;;;10.40;80.47
66945;BME280;53853;51.982;5.928;2024-02-21T06:44:05;101713.78;;;10.38;80.84
66945;BME280;53853;51.982;5.928;2024-02-21T06:46:35;101708.34;;;10.40;81.67
66945;BME280;53853;51.982;5.928;2024-02-21T06:49:05;101708.22;;;10.41;81.89
66945;BME280;53853;51.982;5.928;2024-02-21T06:51:34;101716.22;;;10.41;81.24
66945;BME280;53853;51.982;5.928;2024-02-21T06:54:07;101713.53;;;10.41;80.30
66945;BME280;53853;51.982;5.928;2024-02-21T06:56:37;101711.00;;;10.40;80.74
66945;BME280;53853;51.982;5.928;2024-02-21T06:59:07;101715.25;;;10.42;80.90
66945;BME280;53853;51.982;5.928;2024-02-21T07:01:38;101718.88;;;10.41;81.21
66945;BME280;53853;51.982;5.928;2024-02-21T07:04:08;101710.88;;;10.41;81.30
66945;BME280;53853;51.982;5.928;2024-02-21T07:06:37;101711.00;;;10.40;81.09
66945;BME280;53853;51.982;5.928;2024-02-21T07:09:10;101704.59;;;10.42;81.48
66945;BME280;53853;51.982;5.928;2024-02-21T07:11:40;101710.88;;;10.41;81.07
66945;BME280;53853;51.982;5.928;2024-02-21T07:14:09;101711.72;;;10.42;80.96
66945;BME280;53853;51.982;5.928;2024-02-21T07:16:39;101695.72;;;10.42;80.79
66945;BME280;53853;51.982;5.928;2024-02-21T07:19:09;101693.94;;;10.42;81.13
66945;BME280;53853;51.982;5.928;2024-02-21T07:21:39;101697.31;;;10.44;81.12
66945;BME280;53853;51.982;5.928;2024-02-21T07:24:11;101689.19;;;10.46;80.76
66945;BME280;53853;51.982;5.928;2024-02-21T07:26:42;101688.34;;;10.45;79.95
66945;BME280;53853;51.982;5.928;2024-02-21T07:29:12;101685.69;;;10.45;80.20
66945;BME280;53853;51.982;5.928;2024-02-21T07:31:42;101682.28;;;10.43;79.19
66945;BME280;53853;51.982;5.928;2024-02-21T07:34:15;101681.31;;;10.44;79.72
66945;BME280;53853;51.982;5.928;2024-02-21T07:36:45;101675.72;;;10.47;80.24
66945;BME280;53853;51.982;5.928;2024-02-21T07:39:17;101673.78;;;10.49;80.27
66945;BME280;53853;51.982;5.928;2024-02-21T07:41:47;101671.84;;;10.51;80.06
66945;BME280;53853;51.982;5.928;2024-02-21T07:44:17;101673.53;;;10.52;80.11
66945;BME280;53853;51.982;5.928;2024-02-21T07:46:47;101667.09;;;10.55;80.72
66945;BME280;53853;51.982;5.928;2024-02-21T07:49:16;101666.97;;;10.57;80.99
66945;BME280;53853;51.982;5.928;2024-02-21T07:51:46;101666.84;;;10.58;80.50
66945;BME280;53853;51.982;5.928;2024-02-21T07:54:19;101648.06;;;10.60;80.35
66945;BME280;53853;51.982;5.928;2024-02-21T07:56:49;101649.84;;;10.59;79.39
66945;BME280;53853;51.982;5.928;2024-02-21T07:59:18;101639.19;;;10.59;78.88
66945;BME280;53853;51.982;5.928;2024-02-21T08:01:48;101633.72;;;10.61;79.05
66945;BME280;53853;51.982;5.928;2024-02-21T08:04:18;101623.81;;;10.63;79.76
66945;BME280;53853;51.982;5.928;2024-02-21T08:06:52;101611.31;;;10.63;78.54
66945;BME280;53853;51.982;5.928;2024-02-21T08:09:25;101619.03;;;10.66;79.14
66945;BME280;53853;51.982;5.928;2024-02-21T08:11:55;101614.28;;;10.70;79.49
66945;BME280;53853;51.982;5.928;2024-02-21T08:14:25;101610.66;;;10.71;78.26
66945;BME280;53853;51.982;5.928;2024-02-21T08:16:55;101615.16;;;10.71;76.78
66945;BME280;53853;51.982;5.928;2024-02-21T08:19:26;101616.00;;;10.71;77.51
66945;BME280;53853;51.982;5.928;2024-02-21T08:21:56;101612.31;;;10.72;77.49
66945;BME280;53853;51.982;5.928;2024-02-21T08:24:28;101612.31;;;10.72;77.36
66945;BME280;53853;51.982;5.928;2024-02-21T08:26:58;101614.84;;;10.74;76.73
66945;BME280;53853;51.982;5.928;2024-02-21T08:29:28;101602.25;;;10.76;77.46
66945;BME280;53853;51.982;5.928;2024-02-21T08:31:58;101588.41;;;10.82;77.71
66945;BME280;53853;51.982;5.928;2024-02-21T08:34:27;101597.69;;;10.87;77.85
66945;BME280;53853;51.982;5.928;2024-02-21T08:37:00;101597.41;;;10.91;77.74
66945;BME280;53853;51.982;5.928;2024-02-21T08:39:33;101584.66;;;10.94;77.48
66945;BME280;53853;51.982;5.928;2024-02-21T08:42:03;101588.88;;;10.97;76.60
66945;BME280;53853;51.982;5.928;2024-02-21T08:44:33;101583.41;;;10.98;76.01
66945;BME280;53853;51.982;5.928;2024-02-21T08:47:04;101579.03;;;10.97;76.58
66945;BME280;53853;51.982;5.928;2024-02-21T08:49:36;101577.13;;;10.99;76.83
66945;BME280;53853;51.982;5.928;2024-02-21T08:52:06;101576.84;;;11.02;75.94
66945;BME280;53853;51.982;5.928;2024-02-21T08:54:38;101576.13;;;11.00;75.47
66945;BME280;53853;51.982;5.928;2024-02-21T08:57:08;101566.31;;;11.01;76.35
66945;BME280;53853;51.982;5.928;2024-02-21T08:59:40;101555.09;;;11.07;77.07
66945;BME280;53853;51.982;5.928;2024-02-21T09:02:10;101552.31;;;11.09;76.06
66945;BME280;53853;51.982;5.928;2024-02-21T09:04:40;101546.66;;;11.12;74.92
66945;BME280;53853;51.982;5.928;2024-02-21T09:07:10;101542.19;;;11.12;75.13
66945;BME280;53853;51.982;5.928;2024-02-21T09:09:43;101549.19;;;11.13;74.73
66945;BME280;53853;51.982;5.928;2024-02-21T09:12:13;101541.19;;;11.13;74.93
66945;BME280;53853;51.982;5.928;2024-02-21T09:14:42;101541.94;;;11.15;75.32
66945;BME280;53853;51.982;5.928;2024-02-21T09:17:16;101546.13;;;11.18;75.01
66945;BME280;53853;51.982;5.928;2024-02-21T09:19:47;101545.16;;;11.19;75.49
66945;BME280;53853;51.982;5.928;2024-02-21T09:22:17;101549.25;;;11.23;75.77
66945;BME280;53853;51.982;5.928;2024-02-21T09:24:49;101548.13;;;11.26;75.36
66945;BME280;53853;51.982;5.928;2024-02-21T09:27:19;101539.00;;;11.28;75.33
66945;BME280;53853;51.982;5.928;2024-02-21T09:29:49;101536.91;;;11.32;75.33
66945;BME280;53853;51.982;5.928;2024-02-21T09:32:19;101538.31;;;11.36;75.49
66945;BME280;53853;51.982;5.928;2024-02-21T09:34:49;101530.88;;;11.39;74.22
66945;BME280;53853;51.982;5.928;2024-02-21T09:37:21;101525.25;;;11.42;74.61
66945;BME280;53853;51.982;5.928;2024-02-21T09:39:53;101524.84;;;11.47;73.91
66945;BME280;53853;51.982;5.928;2024-02-21T09:42:28;101521.19;;;11.48;74.02
66945;BME280;53853;51.982;5.928;2024-02-21T09:45:03;101509.38;;;11.51;73.48
66945;BME280;53853;51.982;5.928;2024-02-21T09:47:46;101507.69;;;11.50;72.88
66945;BME280;53853;51.982;5.928;2024-02-21T09:50:20;101503.91;;;11.52;73.99
66945;BME280;53853;51.982;5.928;2024-02-21T09:52:52;101506.31;;;11.55;74.30
66945;BME280;53853;51.982;5.928;2024-02-21T09:55:26;101498.03;;;11.58;74.02
66945;BME280;53853;51.982;5.928;2024-02-21T09:57:58;101500.56;;;11.60;72.97
66945;BME280;53853;51.982;5.928;2024-02-21T10:00:30;101493.38;;;11.60;72.11
66945;BME280;53853;51.982;5.928;2024-02-21T10:03:00;101490.84;;;11.59;71.75
66945;BME280;53853;51.982;5.928;2024-02-21T10:05:32;101480.75;;;11.63;72.31
66945;BME280;53853;51.982;5.928;2024-02-21T10:08:02;101476.66;;;11.68;72.80
66945;BME280;53853;51.982;5.928;2024-02-21T10:10:44;101472.00;;;11.70;72.40
66945;BME280;53853;51.982;5.928;2024-02-21T10:13:25;101460.63;;;11.78;73.83
66945;BME280;53853;51.982;5.928;2024-02-21T10:16:05;101456.25;;;11.87;73.73
66945;BME280;53853;51.982;5.928;2024-02-21T10:18:35;101448.53;;;11.93;74.25
66945;BME280;53853;51.982;5.928;2024-02-21T10:21:07;101443.59;;;11.99;73.24
66945;BME280;53853;51.982;5.928;2024-02-21T10:23:43;101439.53;;;12.04;73.70
66945;BME280;53853;51.982;5.928;2024-02-21T10:26:17;101434.88;;;12.06;73.60
66945;BME280;53853;51.982;5.928;2024-02-21T10:28:47;101432.75;;;12.10;74.30
66945;BME280;53853;51.982;5.928;2024-02-21T10:31:23;101436.28;;;12.10;73.63
66945;BME280;53853;51.982;5.928;2024-02-21T10:33:57;101422.63;;;12.04;71.82
66945;BME280;53853;51.982;5.928;2024-02-21T10:36:30;101419.03;;;11.95;72.43
66945;BME280;53853;51.982;5.928;2024-02-21T10:38:59;101413.81;;;11.93;73.16
66945;BME280;53853;51.982;5.928;2024-02-21T10:41:32;101409.03;;;11.87;73.01
66945;BME280;53853;51.982;5.928;2024-02-21T10:44:06;101408.34;;;11.85;73.59
66945;BME280;53853;51.982;5.928;2024-02-21T10:46:39;101405.94;;;11.82;74.17
66945;BME280;53853;51.982;5.928;2024-02-21T10:49:16;101397.81;;;11.84;75.24
66945;BME280;53853;51.982;5.928;2024-02-21T10:51:56;101392.31;;;11.85;76.49
66945;BME280;53853;51.982;5.928;2024-02-21T10:54:44;101389.66;;;11.85;76.28
66945;BME280;53853;51.982;5.928;2024-02-21T10:57:18;101383.63;;;11.83;76.08
66945;BME280;53853;51.982;5.928;2024-02-21T10:59:48;101381.09;;;11.82;76.22
66945;BME280;53853;51.982;5.928;2024-02-21T11:02:18;101369.97;;;11.76;75.67
66945;BME280;53853;51.982;5.928;2024-02-21T11:04:49;101365.78;;;11.74;76.17
66945;BME280;53853;51.982;5.928;2024-02-21T11:07:20;101361.97;;;11.76;76.75
66945;BME280;53853;51.982;5.928;2024-02-21T11:09:53;101351.00;;;11.79;77.58
66945;BME280;53853;51.982;5.928;2024-02-21T11:12:26;101340.88;;;11.83;77.69
66945;BME280;53853;51.982;5.928;2024-02-21T11:15:04;101330.44;;;11.90;77.93
66945;BME280;53853;51.982;5.928;2024-02-21T11:17:34;101308.69;;;11.94;78.64
66945;BME280;53853;51.982;5.928;2024-02-21T11:20:14;101286.16;;;11.97;79.06
66945;BME280;53853;51.982;5.928;2024-02-21T11:22:44;101269.97;;;11.99;79.37
66945;BME280;53853;51.982;5.928;2024-02-21T11:25:22;101269.16;;;11.98;79.43
66945;BME280;53853;51.982;5.928;2024-02-21T11:28:02;101280.75;;;12.07;80.37
66945;BME280;53853;51.982;5.928;2024-02-21T11:30:35;101289.34;;;12.10;80.22
66945;BME280;53853;51.982;5.928;2024-02-21T11:33:07;101291.88;;;12.12;79.54
66945;BME280;53853;51.982;5.928;2024-02-21T11:35:37;101307.31;;;12.08;75.67
66945;BME280;53853;51.982;5.928;2024-02-21T11:38:11;101302.13;;;12.07;76.09
66945;BME280;53853;51.982;5.928;2024-02-21T11:40:44;101300.47;;;12.06;76.08
66945;BME280;53853;51.982;5.928;2024-02-21T11:43:17;101289.25;;;12.02;76.48
66945;BME280;53853;51.982;5.928;2024-02-21T11:45:47;101279.69;;;12.00;77.07
66945;BME280;53853;51.982;5.928;2024-02-21T11:48:17;101263.66;;;12.00;77.60
66945;BME280;53853;51.982;5.928;2024-02-21T11:50:53;101259.16;;;12.00;76.77
66945;BME280;53853;51.982;5.928;2024-02-21T11:53:24;101253.28;;;11.96;74.39
66945;BME280;53853;51.982;5.928;2024-02-21T11:55:57;101264.50;;;11.90;73.09
66945;BME280;53853;51.982;5.928;2024-02-21T11:58:30;101251.59;;;11.86;73.44
66945;BME280;53853;51.982;5.928;2024-02-21T12:01:00;101249.22;;;11.83;73.28
66945;BME280;53853;51.982;5.928;2024-02-21T12:03:31;101249.22;;;11.83;73.09
66945;BME280;53853;51.982;5.928;2024-02-21T12:06:02;101244.91;;;11.82;73.83
66945;BME280;53853;51.982;5.928;2024-02-21T12:08:41;101244.91;;;11.82;73.58
66945;BME280;53853;51.982;5.928;2024-02-21T12:11:21;101234.22;;;11.82;73.39
66945;BME280;53853;51.982;5.928;2024-02-21T12:14:04;101222.66;;;11.81;73.55
66945;BME280;53853;51.982;5.928;2024-02-21T12:16:35;101210.56;;;11.87;74.39
66945;BME280;53853;51.982;5.928;2024-02-21T12:19:05;101213.91;;;11.89;73.77
66945;BME280;53853;51.982;5.928;2024-02-21T12:21:36;101203.66;;;11.94;74.73
66945;BME280;53853;51.982;5.928;2024-02-21T12:24:16;101172.41;;;12.04;75.92
66945;BME280;53853;51.982;5.928;2024-02-21T12:26:47;101153.63;;;12.14;76.47
66945;BME280;53853;51.982;5.928;2024-02-21T12:29:19;101125.69;;;12.26;77.59
66945;BME280;53853;51.982;5.928;2024-02-21T12:31:50;101119.94;;;12.39;77.00
66945;BME280;53853;51.982;5.928;2024-02-21T12:34:20;101120.50;;;12.51;77.56
66945;BME280;53853;51.982;5.928;2024-02-21T12:36:51;101111.25;;;12.63;77.57
66945;BME280;53853;51.982;5.928;2024-02-21T12:39:21;101112.00;;;12.74;77.84
66945;BME280;53853;51.982;5.928;2024-02-21T12:41:51;101108.50;;;12.81;78.52
66945;BME280;53853;51.982;5.928;2024-02-21T12:44:23;101096.34;;;12.87;78.47
66945;BME280;53853;51.982;5.928;2024-02-21T12:46:53;101085.34;;;12.90;77.12
66945;BME280;53853;51.982;5.928;2024-02-21T12:49:23;101080.66;;;12.92;76.03
66945;BME280;53853;51.982;5.928;2024-02-21T12:51:56;101068.81;;;12.95;74.28
66945;BME280;53853;51.982;5.928;2024-02-21T12:54:26;101067.69;;;12.97;71.75
66945;BME280;53853;51.982;5.928;2024-02-21T12:56:57;101071.00;;;12.99;71.16
66945;BME280;53853;51.982;5.928;2024-02-21T12:59:32;101046.94;;;12.99;71.51
66945;BME280;53853;51.982;5.928;2024-02-21T13:02:02;101037.72;;;13.02;72.05
66945;BME280;53853;51.982;5.928;2024-02-21T13:04:31;101022.69;;;13.01;71.23
66945;BME280;53853;51.982;5.928;2024-02-21T13:07:01;101018.19;;;13.01;69.08
66945;BME280;53853;51.982;5.928;2024-02-21T13:09:33;101014.16;;;12.97;68.38
66945;BME280;53853;51.982;5.928;2024-02-21T13:12:03;101000.25;;;12.94;68.46